sensor_id;sensor_type;location;lat;lon;timestamp;P1;durP1;ratioP1;P2;durP2;ratioP2
15297;SDS011;7750;48.796;9.026;2023-02-15T00:03:29;28.17;;;18.67;;
15297;SDS011;7750;48.796;9.026;2023-02-15T00:08:29;33.30;;;20.50;;
15297;SDS011;7750;48.796;9.026;2023-02-15T00:13:30;27.07;;;19.57;;
15297;SDS011;7750;48.796;9.026;2023-02-15T00:18:30;25.63;;;18.90;;
15297;SDS011;7750;48.796;9.026;2023-02-15T00:23:31;28.50;;;19.30;;
15297;SDS011;7750;48.796;9.026;2023-02-15T00:28:32;24.50;;;17.17;;
15297;SDS011;7750;48.796;9.026;2023-02-15T00:33:33;28.87;;;18.60;;
15297;SDS011;7750;48.796;9.026;2023-02-15T00:38:34;26.37;;;18.63;;
15297;SDS011;7750;48.796;9.026;2023-02-15T00:43:35;32.03;;;19.47;;
15297;SDS011;7750;48.796;9.026;2023-02-15T00:48:36;27.47;;;19.30;;
15297;SDS011;7750;48.796;9.026;2023-02-15T00:53:37;28.97;;;19.30;;
15297;SDS011;7750;48.796;9.026;2023-02-15T00:58:38;25.37;;;17.70;;
15297;SDS011;7750;48.796;9.026;2023-02-15T01:03:38;29.37;;;18.07;;
15297;SDS011;7750;48.796;9.026;2023-02-15T01:08:41;29.00;;;18.60;;
15297;SDS011;7750;48.796;9.026;2023-02-15T01:13:44;30.07;;;19.17;;
15297;SDS011;7750;48.796;9.026;2023-02-15T01:18:44;27.43;;;18.50;;
15297;SDS011;7750;48.796;9.026;2023-02-15T01:23:45;27.60;;;19.17;;
15297;SDS011;7750;48.796;9.026;2023-02-15T01:28:46;28.00;;;18.70;;
15297;SDS011;7750;48.796;9.026;2023-02-15T01:33:47;28.60;;;18.60;;
15297;SDS011;7750;48.796;9.026;2023-02-15T01:38:47;29.57;;;19.23;;
15297;SDS011;7750;48.796;9.026;2023-02-15T01:43:53;26.47;;;18.57;;
15297;SDS011;7750;48.796;9.026;2023-02-15T01:49:03;27.43;;;18.87;;
15297;SDS011;7750;48.796;9.026;2023-02-15T01:59:24;24.47;;;16.90;;
15297;SDS011;7750;48.796;9.026;2023-02-15T02:09:29;26.57;;;19.47;;
15297;SDS011;7750;48.796;9.026;2023-02-15T02:14:30;23.90;;;16.60;;
15297;SDS011;7750;48.796;9.026;2023-02-15T02:25:08;30.07;;;18.83;;
15297;SDS011;7750;48.796;9.026;2023-02-15T02:41:07;29.50;;;18.87;;
15297;SDS011;7750;48.796;9.026;2023-02-15T02:46:30;28.27;;;18.23;;
15297;SDS011;7750;48.796;9.026;2023-02-15T02:51:39;30.77;;;19.80;;
15297;SDS011;7750;48.796;9.026;2023-02-15T02:56:41;28.80;;;19.17;;
15297;SDS011;7750;48.796;9.026;2023-02-15T03:01:57;25.20;;;18.90;;
15297;SDS011;7750;48.796;9.026;2023-02-15T03:07:01;26.60;;;19.40;;
15297;SDS011;7750;48.796;9.026;2023-02-15T03:12:05;29.07;;;19.80;;
15297;SDS011;7750;48.796;9.026;2023-02-15T03:17:07;27.97;;;19.30;;
15297;SDS011;7750;48.796;9.026;2023-02-15T03:22:18;24.20;;;17.30;;
15297;SDS011;7750;48.796;9.026;2023-02-15T03:27:26;27.93;;;19.77;;
15297;SDS011;7750;48.796;9.026;2023-02-15T03:32:32;30.10;;;18.80;;
15297;SDS011;7750;48.796;9.026;2023-02-15T03:42:49;29.57;;;18.90;;
15297;SDS011;7750;48.796;9.026;2023-02-15T03:48:04;28.77;;;19.13;;
15297;SDS011;7750;48.796;9.026;2023-02-15T03:53:09;38.80;;;19.87;;
15297;SDS011;7750;48.796;9.026;2023-02-15T03:58:11;29.93;;;19.53;;
15297;SDS011;7750;48.796;9.026;2023-02-15T04:08:40;32.70;;;19.83;;
15297;SDS011;7750;48.796;9.026;2023-02-15T04:13:59;31.67;;;20.70;;
15297;SDS011;7750;48.796;9.026;2023-02-15T04:19:20;31.27;;;19.97;;
15297;SDS011;7750;48.796;9.026;2023-02-15T04:24:39;32.10;;;19.90;;
15297;SDS011;7750;48.796;9.026;2023-02-15T04:29:58;29.73;;;19.40;;
15297;SDS011;7750;48.796;9.026;2023-02-15T04:34:58;31.03;;;19.70;;
15297;SDS011;7750;48.796;9.026;2023-02-15T04:39:59;29.60;;;19.03;;
15297;SDS011;7750;48.796;9.026;2023-02-15T04:45:00;32.17;;;20.03;;
15297;SDS011;7750;48.796;9.026;2023-02-15T04:50:00;32.30;;;19.83;;
15297;SDS011;7750;48.796;9.026;2023-02-15T04:55:01;28.17;;;17.43;;
15297;SDS011;7750;48.796;9.026;2023-02-15T05:00:02;31.20;;;19.87;;
15297;SDS011;7750;48.796;9.026;2023-02-15T05:05:03;35.90;;;21.10;;
15297;SDS011;7750;48.796;9.026;2023-02-15T05:10:04;29.20;;;18.90;;
15297;SDS011;7750;48.796;9.026;2023-02-15T05:15:05;31.87;;;21.00;;
15297;SDS011;7750;48.796;9.026;2023-02-15T05:20:06;30.70;;;19.80;;
15297;SDS011;7750;48.796;9.026;2023-02-15T05:25:08;31.13;;;19.50;;
15297;SDS011;7750;48.796;9.026;2023-02-15T05:30:27;32.13;;;19.67;;
15297;SDS011;7750;48.796;9.026;2023-02-15T05:35:28;28.53;;;18.53;;
15297;SDS011;7750;48.796;9.026;2023-02-15T05:40:29;28.83;;;17.87;;
15297;SDS011;7750;48.796;9.026;2023-02-15T05:45:29;32.03;;;20.27;;
15297;SDS011;7750;48.796;9.026;2023-02-15T05:50:30;24.50;;;15.93;;
15297;SDS011;7750;48.796;9.026;2023-02-15T05:55:30;27.80;;;18.37;;
15297;SDS011;7750;48.796;9.026;2023-02-15T06:00:31;29.50;;;19.67;;
15297;SDS011;7750;48.796;9.026;2023-02-15T06:05:32;28.57;;;17.63;;
15297;SDS011;7750;48.796;9.026;2023-02-15T06:10:33;29.73;;;18.27;;
15297;SDS011;7750;48.796;9.026;2023-02-15T06:15:33;26.90;;;17.90;;
15297;SDS011;7750;48.796;9.026;2023-02-15T06:20:34;26.30;;;17.37;;
15297;SDS011;7750;48.796;9.026;2023-02-15T06:25:35;28.63;;;17.53;;
15297;SDS011;7750;48.796;9.026;2023-02-15T06:30:35;26.80;;;18.87;;
15297;SDS011;7750;48.796;9.026;2023-02-15T06:35:36;29.33;;;17.83;;
15297;SDS011;7750;48.796;9.026;2023-02-15T06:40:36;29.00;;;18.20;;
15297;SDS011;7750;48.796;9.026;2023-02-15T06:45:37;28.97;;;17.23;;
15297;SDS011;7750;48.796;9.026;2023-02-15T06:50:38;29.07;;;18.77;;
15297;SDS011;7750;48.796;9.026;2023-02-15T06:55:38;26.10;;;17.33;;
15297;SDS011;7750;48.796;9.026;2023-02-15T07:00:39;29.10;;;17.53;;
15297;SDS011;7750;48.796;9.026;2023-02-15T07:05:40;27.90;;;18.43;;
15297;SDS011;7750;48.796;9.026;2023-02-15T07:10:43;25.67;;;18.00;;
15297;SDS011;7750;48.796;9.026;2023-02-15T07:15:44;28.37;;;18.80;;
15297;SDS011;7750;48.796;9.026;2023-02-15T07:20:46;26.40;;;18.10;;
15297;SDS011;7750;48.796;9.026;2023-02-15T07:25:47;26.67;;;17.13;;
15297;SDS011;7750;48.796;9.026;2023-02-15T07:30:47;27.27;;;16.87;;
15297;SDS011;7750;48.796;9.026;2023-02-15T07:35:49;28.50;;;18.70;;
15297;SDS011;7750;48.796;9.026;2023-02-15T07:41:00;24.93;;;16.90;;
15297;SDS011;7750;48.796;9.026;2023-02-15T07:46:03;23.67;;;16.77;;
15297;SDS011;7750;48.796;9.026;2023-02-15T07:51:08;19.60;;;15.43;;
15297;SDS011;7750;48.796;9.026;2023-02-15T07:56:10;19.00;;;15.30;;
15297;SDS011;7750;48.796;9.026;2023-02-15T08:01:13;18.27;;;14.80;;
15297;SDS011;7750;48.796;9.026;2023-02-15T08:06:14;19.10;;;15.00;;
15297;SDS011;7750;48.796;9.026;2023-02-15T08:11:17;18.50;;;14.30;;
15297;SDS011;7750;48.796;9.026;2023-02-15T08:16:26;18.40;;;15.23;;
15297;SDS011;7750;48.796;9.026;2023-02-15T08:21:32;20.40;;;15.10;;
15297;SDS011;7750;48.796;9.026;2023-02-15T08:26:34;20.37;;;15.27;;
15297;SDS011;7750;48.796;9.026;2023-02-15T08:31:35;22.17;;;15.73;;
15297;SDS011;7750;48.796;9.026;2023-02-15T08:36:37;21.90;;;16.10;;
15297;SDS011;7750;48.796;9.026;2023-02-15T08:41:38;21.60;;;15.50;;
15297;SDS011;7750;48.796;9.026;2023-02-15T08:46:42;20.00;;;14.70;;
15297;SDS011;7750;48.796;9.026;2023-02-15T08:51:44;19.50;;;14.23;;
15297;SDS011;7750;48.796;9.026;2023-02-15T08:56:45;15.03;;;12.40;;
15297;SDS011;7750;48.796;9.026;2023-02-15T09:01:46;15.90;;;12.90;;
15297;SDS011;7750;48.796;9.026;2023-02-15T09:06:48;16.90;;;13.37;;
15297;SDS011;7750;48.796;9.026;2023-02-15T09:11:50;27.65;;;17.98;;
15297;SDS011;7750;48.796;9.026;2023-02-15T09:16:51;24.17;;;17.23;;
15297;SDS011;7750;48.796;9.026;2023-02-15T09:21:52;20.97;;;15.23;;
15297;SDS011;7750;48.796;9.026;2023-02-15T09:26:53;21.83;;;15.67;;
15297;SDS011;7750;48.796;9.026;2023-02-15T09:31:54;21.20;;;17.23;;
15297;SDS011;7750;48.796;9.026;2023-02-15T09:36:55;19.90;;;15.40;;
15297;SDS011;7750;48.796;9.026;2023-02-15T09:58:07;24.33;;;18.03;;
15297;SDS011;7750;48.796;9.026;2023-02-15T10:03:20;21.90;;;17.23;;
15297;SDS011;7750;48.796;9.026;2023-02-15T10:08:38;19.87;;;14.90;;
15297;SDS011;7750;48.796;9.026;2023-02-15T10:13:57;23.60;;;17.00;;
15297;SDS011;7750;48.796;9.026;2023-02-15T10:30:14;27.90;;;17.40;;
15297;SDS011;7750;48.796;9.026;2023-02-15T10:57:14;25.67;;;18.90;;
15297;SDS011;7750;48.796;9.026;2023-02-15T11:07:46;26.50;;;19.33;;
15297;SDS011;7750;48.796;9.026;2023-02-15T11:12:50;25.00;;;18.80;;
15297;SDS011;7750;48.796;9.026;2023-02-15T11:18:05;25.63;;;18.00;;
15297;SDS011;7750;48.796;9.026;2023-02-15T11:23:14;23.33;;;17.20;;
15297;SDS011;7750;48.796;9.026;2023-02-15T11:28:21;27.40;;;18.53;;
15297;SDS011;7750;48.796;9.026;2023-02-15T11:33:28;31.57;;;18.47;;
15297;SDS011;7750;48.796;9.026;2023-02-15T11:38:35;25.40;;;18.17;;
15297;SDS011;7750;48.796;9.026;2023-02-15T11:54:30;24.83;;;18.20;;
15297;SDS011;7750;48.796;9.026;2023-02-15T11:59:34;26.00;;;19.00;;
15297;SDS011;7750;48.796;9.026;2023-02-15T12:05:00;29.63;;;20.67;;
15297;SDS011;7750;48.796;9.026;2023-02-15T12:15:31;26.70;;;19.50;;
15297;SDS011;7750;48.796;9.026;2023-02-15T12:20:35;25.57;;;18.67;;
15297;SDS011;7750;48.796;9.026;2023-02-15T12:25:40;26.03;;;18.77;;
15297;SDS011;7750;48.796;9.026;2023-02-15T12:30:54;25.40;;;19.80;;
15297;SDS011;7750;48.796;9.026;2023-02-15T12:35:57;31.33;;;19.50;;
15297;SDS011;7750;48.796;9.026;2023-02-15T12:41:24;26.17;;;19.10;;
15297;SDS011;7750;48.796;9.026;2023-02-15T12:46:26;24.00;;;18.93;;
15297;SDS011;7750;48.796;9.026;2023-02-15T12:51:27;27.83;;;18.90;;
15297;SDS011;7750;48.796;9.026;2023-02-15T12:56:28;26.30;;;19.07;;
15297;SDS011;7750;48.796;9.026;2023-02-15T13:01:28;30.07;;;21.67;;
15297;SDS011;7750;48.796;9.026;2023-02-15T13:06:33;27.13;;;18.90;;
15297;SDS011;7750;48.796;9.026;2023-02-15T13:11:35;28.07;;;20.90;;
15297;SDS011;7750;48.796;9.026;2023-02-15T13:16:37;32.43;;;21.10;;
15297;SDS011;7750;48.796;9.026;2023-02-15T13:21:40;32.43;;;21.97;;
15297;SDS011;7750;48.796;9.026;2023-02-15T13:26:44;29.03;;;20.40;;
15297;SDS011;7750;48.796;9.026;2023-02-15T13:31:47;27.90;;;20.80;;
15297;SDS011;7750;48.796;9.026;2023-02-15T13:37:10;30.10;;;20.80;;
15297;SDS011;7750;48.796;9.026;2023-02-15T13:53:09;31.03;;;22.03;;
15297;SDS011;7750;48.796;9.026;2023-02-15T14:19:13;35.40;;;22.93;;
15297;SDS011;7750;48.796;9.026;2023-02-15T14:24:37;29.40;;;20.97;;
15297;SDS011;7750;48.796;9.026;2023-02-15T14:29:47;27.73;;;20.47;;
15297;SDS011;7750;48.796;9.026;2023-02-15T14:34:56;29.30;;;22.43;;
15297;SDS011;7750;48.796;9.026;2023-02-15T14:40:04;28.37;;;20.50;;
15297;SDS011;7750;48.796;9.026;2023-02-15T14:45:42;30.37;;;22.07;;
15297;SDS011;7750;48.796;9.026;2023-02-15T14:50:56;31.13;;;21.47;;
15297;SDS011;7750;48.796;9.026;2023-02-15T15:01:10;28.00;;;21.30;;
15297;SDS011;7750;48.796;9.026;2023-02-15T15:06:23;30.60;;;22.70;;
15297;SDS011;7750;48.796;9.026;2023-02-15T15:16:48;30.33;;;22.40;;
15297;SDS011;7750;48.796;9.026;2023-02-15T15:21:54;31.43;;;20.70;;
15297;SDS011;7750;48.796;9.026;2023-02-15T15:32:34;29.97;;;21.90;;
15297;SDS011;7750;48.796;9.026;2023-02-15T15:48:41;28.97;;;19.33;;
15297;SDS011;7750;48.796;9.026;2023-02-15T15:53:43;28.60;;;19.30;;
15297;SDS011;7750;48.796;9.026;2023-02-15T15:58:54;24.00;;;18.47;;
15297;SDS011;7750;48.796;9.026;2023-02-15T16:03:58;27.80;;;18.63;;
15297;SDS011;7750;48.796;9.026;2023-02-15T16:09:16;28.73;;;19.80;;
15297;SDS011;7750;48.796;9.026;2023-02-15T16:19:28;26.93;;;17.87;;
15297;SDS011;7750;48.796;9.026;2023-02-15T16:30:22;28.10;;;18.23;;
15297;SDS011;7750;48.796;9.026;2023-02-15T16:35:31;27.60;;;18.90;;
15297;SDS011;7750;48.796;9.026;2023-02-15T16:46:08;29.70;;;18.10;;
15297;SDS011;7750;48.796;9.026;2023-02-15T16:51:36;26.73;;;16.93;;
15297;SDS011;7750;48.796;9.026;2023-02-15T16:56:41;24.27;;;16.80;;
15297;SDS011;7750;48.796;9.026;2023-02-15T17:01:46;25.23;;;16.70;;
15297;SDS011;7750;48.796;9.026;2023-02-15T17:07:12;23.10;;;16.17;;
15297;SDS011;7750;48.796;9.026;2023-02-15T17:12:33;22.97;;;17.10;;
15297;SDS011;7750;48.796;9.026;2023-02-15T17:17:45;24.20;;;17.50;;
15297;SDS011;7750;48.796;9.026;2023-02-15T17:22:46;32.75;;;21.55;;
15297;SDS011;7750;48.796;9.026;2023-02-15T17:27:50;26.50;;;18.40;;
15297;SDS011;7750;48.796;9.026;2023-02-15T17:33:02;26.17;;;18.47;;
15297;SDS011;7750;48.796;9.026;2023-02-15T17:43:04;33.70;;;18.43;;
15297;SDS011;7750;48.796;9.026;2023-02-15T17:48:05;30.83;;;19.93;;
15297;SDS011;7750;48.796;9.026;2023-02-15T17:53:07;28.37;;;19.80;;
15297;SDS011;7750;48.796;9.026;2023-02-15T17:58:10;31.80;;;22.00;;
15297;SDS011;7750;48.796;9.026;2023-02-15T18:03:12;29.73;;;20.77;;
15297;SDS011;7750;48.796;9.026;2023-02-15T18:08:31;32.70;;;22.07;;
15297;SDS011;7750;48.796;9.026;2023-02-15T18:13:50;29.50;;;21.17;;
15297;SDS011;7750;48.796;9.026;2023-02-15T18:18:50;38.20;;;20.87;;
15297;SDS011;7750;48.796;9.026;2023-02-15T18:23:52;27.60;;;20.47;;
15297;SDS011;7750;48.796;9.026;2023-02-15T18:28:52;30.63;;;21.40;;
15297;SDS011;7750;48.796;9.026;2023-02-15T18:33:53;27.87;;;21.03;;
15297;SDS011;7750;48.796;9.026;2023-02-15T18:38:58;29.87;;;20.87;;
15297;SDS011;7750;48.796;9.026;2023-02-15T18:43:59;33.07;;;21.80;;
15297;SDS011;7750;48.796;9.026;2023-02-15T18:49:00;31.50;;;20.50;;
15297;SDS011;7750;48.796;9.026;2023-02-15T18:54:01;28.70;;;21.27;;
15297;SDS011;7750;48.796;9.026;2023-02-15T18:59:01;25.90;;;20.37;;
15297;SDS011;7750;48.796;9.026;2023-02-15T19:04:02;29.53;;;20.93;;
15297;SDS011;7750;48.796;9.026;2023-02-15T19:09:03;26.67;;;20.17;;
15297;SDS011;7750;48.796;9.026;2023-02-15T19:14:05;26.50;;;19.10;;
15297;SDS011;7750;48.796;9.026;2023-02-15T19:19:17;26.63;;;19.87;;
15297;SDS011;7750;48.796;9.026;2023-02-15T19:24:18;24.80;;;18.03;;
15297;SDS011;7750;48.796;9.026;2023-02-15T19:29:26;25.90;;;17.03;;
15297;SDS011;7750;48.796;9.026;2023-02-15T19:34:29;23.83;;;17.63;;
15297;SDS011;7750;48.796;9.026;2023-02-15T19:39:47;24.10;;;16.60;;
15297;SDS011;7750;48.796;9.026;2023-02-15T19:44:49;23.07;;;17.40;;
15297;SDS011;7750;48.796;9.026;2023-02-15T19:49:50;27.33;;;15.67;;
15297;SDS011;7750;48.796;9.026;2023-02-15T19:54:51;20.40;;;15.70;;
15297;SDS011;7750;48.796;9.026;2023-02-15T19:59:53;24.43;;;17.47;;
15297;SDS011;7750;48.796;9.026;2023-02-15T20:04:54;23.20;;;17.77;;
15297;SDS011;7750;48.796;9.026;2023-02-15T20:09:54;25.50;;;16.67;;
15297;SDS011;7750;48.796;9.026;2023-02-15T20:14:55;25.47;;;17.70;;
15297;SDS011;7750;48.796;9.026;2023-02-15T20:19:58;28.37;;;19.57;;
15297;SDS011;7750;48.796;9.026;2023-02-15T20:24:58;27.83;;;19.40;;
15297;SDS011;7750;48.796;9.026;2023-02-15T20:30:00;25.90;;;18.87;;
15297;SDS011;7750;48.796;9.026;2023-02-15T20:35:00;32.93;;;21.23;;
15297;SDS011;7750;48.796;9.026;2023-02-15T20:40:04;25.50;;;17.40;;
15297;SDS011;7750;48.796;9.026;2023-02-15T20:45:22;30.33;;;20.43;;
15297;SDS011;7750;48.796;9.026;2023-02-15T20:50:28;27.43;;;16.80;;
15297;SDS011;7750;48.796;9.026;2023-02-15T20:55:30;23.63;;;16.57;;
15297;SDS011;7750;48.796;9.026;2023-02-15T21:00:31;23.67;;;12.60;;
15297;SDS011;7750;48.796;9.026;2023-02-15T21:05:32;19.60;;;14.30;;
15297;SDS011;7750;48.796;9.026;2023-02-15T21:10:32;22.60;;;14.50;;
15297;SDS011;7750;48.796;9.026;2023-02-15T21:15:35;21.00;;;16.57;;
15297;SDS011;7750;48.796;9.026;2023-02-15T21:20:39;20.17;;;14.40;;
15297;SDS011;7750;48.796;9.026;2023-02-15T21:25:44;20.10;;;14.73;;
15297;SDS011;7750;48.796;9.026;2023-02-15T21:30:46;24.33;;;16.57;;
15297;SDS011;7750;48.796;9.026;2023-02-15T21:35:47;24.47;;;17.70;;
15297;SDS011;7750;48.796;9.026;2023-02-15T21:40:50;24.80;;;16.50;;
15297;SDS011;7750;48.796;9.026;2023-02-15T21:45:51;21.80;;;15.80;;
15297;SDS011;7750;48.796;9.026;2023-02-15T21:51:10;23.80;;;15.77;;
15297;SDS011;7750;48.796;9.026;2023-02-15T21:56:29;20.00;;;14.83;;
15297;SDS011;7750;48.796;9.026;2023-02-15T22:01:30;23.63;;;16.70;;
15297;SDS011;7750;48.796;9.026;2023-02-15T22:06:31;23.63;;;15.93;;
15297;SDS011;7750;48.796;9.026;2023-02-15T22:11:31;23.60;;;16.27;;
15297;SDS011;7750;48.796;9.026;2023-02-15T22:16:32;23.00;;;16.43;;
15297;SDS011;7750;48.796;9.026;2023-02-15T22:21:33;26.17;;;17.60;;
15297;SDS011;7750;48.796;9.026;2023-02-15T22:26:34;29.27;;;18.80;;
15297;SDS011;7750;48.796;9.026;2023-02-15T22:31:34;26.90;;;18.00;;
15297;SDS011;7750;48.796;9.026;2023-02-15T22:36:35;19.40;;;14.87;;
15297;SDS011;7750;48.796;9.026;2023-02-15T22:41:35;21.10;;;14.30;;
15297;SDS011;7750;48.796;9.026;2023-02-15T22:46:36;21.10;;;16.03;;
15297;SDS011;7750;48.796;9.026;2023-02-15T22:51:37;23.43;;;16.10;;
15297;SDS011;7750;48.796;9.026;2023-02-15T22:56:39;19.20;;;14.00;;
15297;SDS011;7750;48.796;9.026;2023-02-15T23:01:47;22.07;;;13.97;;
15297;SDS011;7750;48.796;9.026;2023-02-15T23:06:48;23.70;;;15.73;;
15297;SDS011;7750;48.796;9.026;2023-02-15T23:11:49;19.50;;;13.97;;
15297;SDS011;7750;48.796;9.026;2023-02-15T23:16:52;21.27;;;15.37;;
15297;SDS011;7750;48.796;9.026;2023-02-15T23:21:53;27.20;;;16.07;;
15297;SDS011;7750;48.796;9.026;2023-02-15T23:26:54;22.57;;;14.73;;
15297;SDS011;7750;48.796;9.026;2023-02-15T23:32:15;25.70;;;15.67;;
15297;SDS011;7750;48.796;9.026;2023-02-15T23:37:15;23.47;;;15.83;;
15297;SDS011;7750;48.796;9.026;2023-02-15T23:42:23;24.77;;;14.43;;
15297;SDS011;7750;48.796;9.026;2023-02-15T23:47:33;23.20;;;15.80;;
15297;SDS011;7750;48.796;9.026;2023-02-15T23:52:53;22.57;;;14.00;;
15297;SDS011;7750;48.796;9.026;2023-02-15T23:57:55;18.73;;;12.23;;
